sensor_id;sensor_type;location;lat;lon;timestamp;P1;durP1;ratioP1;P2;durP2;ratioP2
47373;SDS011;33123;50.118;10.272;2023-06-24T00:02:18;2.22;;;2.03;;
47373;SDS011;33123;50.118;10.272;2023-06-24T00:04:49;2.42;;;2.22;;
47373;SDS011;33123;50.118;10.272;2023-06-24T00:07:15;2.75;;;2.55;;
47373;SDS011;33123;50.118;10.272;2023-06-24T00:09:42;1.83;;;1.73;;
47373;SDS011;33123;50.118;10.272;2023-06-24T00:12:09;2.08;;;1.88;;
47373;SDS011;33123;50.118;10.272;2023-06-24T00:14:37;2.00;;;1.80;;
47373;SDS011;33123;50.118;10.272;2023-06-24T00:17:04;2.53;;;2.08;;
47373;SDS011;33123;50.118;10.272;2023-06-24T00:19:32;2.65;;;1.80;;
47373;SDS011;33123;50.118;10.272;2023-06-24T00:21:58;2.13;;;1.92;;
47373;SDS011;33123;50.118;10.272;2023-06-24T00:24:28;3.75;;;2.47;;
47373;SDS011;33123;50.118;10.272;2023-06-24T00:26:56;2.55;;;2.30;;
47373;SDS011;33123;50.118;10.272;2023-06-24T00:29:22;2.30;;;2.00;;
47373;SDS011;33123;50.118;10.272;2023-06-24T00:31:50;2.25;;;2.05;;
47373;SDS011;33123;50.118;10.272;2023-06-24T00:34:17;3.05;;;2.30;;
47373;SDS011;33123;50.118;10.272;2023-06-24T00:36:45;2.90;;;2.50;;
47373;SDS011;33123;50.118;10.272;2023-06-24T00:39:12;2.25;;;2.08;;
47373;SDS011;33123;50.118;10.272;2023-06-24T00:41:38;3.88;;;2.85;;
47373;SDS011;33123;50.118;10.272;2023-06-24T00:44:05;2.50;;;2.30;;
47373;SDS011;33123;50.118;10.272;2023-06-24T00:46:32;2.83;;;2.60;;
47373;SDS011;33123;50.118;10.272;2023-06-24T00:49:00;2.25;;;2.05;;
47373;SDS011;33123;50.118;10.272;2023-06-24T00:51:27;2.53;;;2.28;;
47373;SDS011;33123;50.118;10.272;2023-06-24T00:53:56;3.08;;;2.78;;
47373;SDS011;33123;50.118;10.272;2023-06-24T00:56:25;2.47;;;2.28;;
47373;SDS011;33123;50.118;10.272;2023-06-24T00:58:56;2.53;;;2.33;;
47373;SDS011;33123;50.118;10.272;2023-06-24T01:01:26;2.38;;;2.17;;
47373;SDS011;33123;50.118;10.272;2023-06-24T01:03:57;3.13;;;2.50;;
47373;SDS011;33123;50.118;10.272;2023-06-24T01:06:25;2.25;;;1.85;;
47373;SDS011;33123;50.118;10.272;2023-06-24T01:08:54;2.90;;;2.65;;
47373;SDS011;33123;50.118;10.272;2023-06-24T01:11:21;3.13;;;2.42;;
47373;SDS011;33123;50.118;10.272;2023-06-24T01:13:48;3.00;;;2.53;;
47373;SDS011;33123;50.118;10.272;2023-06-24T01:16:16;2.25;;;2.05;;
47373;SDS011;33123;50.118;10.272;2023-06-24T01:18:48;2.67;;;2.45;;
47373;SDS011;33123;50.118;10.272;2023-06-24T01:21:25;2.78;;;2.58;;
47373;SDS011;33123;50.118;10.272;2023-06-24T01:24:12;2.38;;;2.15;;
47373;SDS011;33123;50.118;10.272;2023-06-24T01:27:00;2.33;;;2.13;;
47373;SDS011;33123;50.118;10.272;2023-06-24T01:29:52;2.78;;;2.38;;
47373;SDS011;33123;50.118;10.272;2023-06-24T01:32:38;2.70;;;2.10;;
47373;SDS011;33123;50.118;10.272;2023-06-24T01:35:11;2.22;;;1.55;;
47373;SDS011;33123;50.118;10.272;2023-06-24T01:37:46;2.78;;;2.58;;
47373;SDS011;33123;50.118;10.272;2023-06-24T01:40:18;1.98;;;1.77;;
47373;SDS011;33123;50.118;10.272;2023-06-24T01:42:49;1.60;;;1.42;;
47373;SDS011;33123;50.118;10.272;2023-06-24T01:45:17;3.22;;;2.70;;
47373;SDS011;33123;50.118;10.272;2023-06-24T01:47:49;4.00;;;3.60;;
47373;SDS011;33123;50.118;10.272;2023-06-24T01:50:24;3.53;;;3.20;;
47373;SDS011;33123;50.118;10.272;2023-06-24T01:52:52;4.05;;;2.97;;
47373;SDS011;33123;50.118;10.272;2023-06-24T01:55:21;3.10;;;2.72;;
47373;SDS011;33123;50.118;10.272;2023-06-24T01:57:50;2.92;;;2.67;;
47373;SDS011;33123;50.118;10.272;2023-06-24T02:00:17;2.95;;;2.75;;
47373;SDS011;33123;50.118;10.272;2023-06-24T02:02:44;2.63;;;2.35;;
47373;SDS011;33123;50.118;10.272;2023-06-24T02:05:14;8.93;;;3.08;;
47373;SDS011;33123;50.118;10.272;2023-06-24T02:07:43;2.83;;;2.58;;
47373;SDS011;33123;50.118;10.272;2023-06-24T02:10:12;2.88;;;2.58;;
47373;SDS011;33123;50.118;10.272;2023-06-24T02:12:41;3.88;;;2.70;;
47373;SDS011;33123;50.118;10.272;2023-06-24T02:15:10;3.95;;;3.35;;
47373;SDS011;33123;50.118;10.272;2023-06-24T02:17:37;2.92;;;2.60;;
47373;SDS011;33123;50.118;10.272;2023-06-24T02:20:06;6.25;;;4.13;;
47373;SDS011;33123;50.118;10.272;2023-06-24T02:22:36;3.80;;;2.78;;
47373;SDS011;33123;50.118;10.272;2023-06-24T02:25:06;3.72;;;2.70;;
47373;SDS011;33123;50.118;10.272;2023-06-24T02:27:33;6.20;;;2.67;;
47373;SDS011;33123;50.118;10.272;2023-06-24T02:30:02;2.35;;;2.13;;
47373;SDS011;33123;50.118;10.272;2023-06-24T02:32:29;2.95;;;2.55;;
47373;SDS011;33123;50.118;10.272;2023-06-24T02:34:56;2.45;;;2.13;;
47373;SDS011;33123;50.118;10.272;2023-06-24T02:37:24;2.58;;;2.38;;
47373;SDS011;33123;50.118;10.272;2023-06-24T02:39:52;3.60;;;2.33;;
47373;SDS011;33123;50.118;10.272;2023-06-24T02:42:18;4.82;;;2.40;;
47373;SDS011;33123;50.118;10.272;2023-06-24T02:44:45;4.20;;;2.55;;
47373;SDS011;33123;50.118;10.272;2023-06-24T02:47:12;3.65;;;2.78;;
47373;SDS011;33123;50.118;10.272;2023-06-24T02:49:41;2.92;;;2.70;;
47373;SDS011;33123;50.118;10.272;2023-06-24T02:52:12;3.33;;;2.72;;
47373;SDS011;33123;50.118;10.272;2023-06-24T02:54:39;3.33;;;2.50;;
47373;SDS011;33123;50.118;10.272;2023-06-24T02:57:08;3.03;;;2.63;;
47373;SDS011;33123;50.118;10.272;2023-06-24T02:59:36;3.33;;;3.03;;
47373;SDS011;33123;50.118;10.272;2023-06-24T03:02:03;4.43;;;2.75;;
47373;SDS011;33123;50.118;10.272;2023-06-24T03:04:30;5.72;;;4.03;;
47373;SDS011;33123;50.118;10.272;2023-06-24T03:06:57;2.60;;;2.28;;
47373;SDS011;33123;50.118;10.272;2023-06-24T03:09:26;2.38;;;1.98;;
47373;SDS011;33123;50.118;10.272;2023-06-24T03:11:52;3.67;;;2.55;;
47373;SDS011;33123;50.118;10.272;2023-06-24T03:14:20;2.35;;;2.08;;
47373;SDS011;33123;50.118;10.272;2023-06-24T03:16:47;1.95;;;1.85;;
47373;SDS011;33123;50.118;10.272;2023-06-24T03:19:14;24.20;;;2.58;;
47373;SDS011;33123;50.118;10.272;2023-06-24T03:21:40;2.20;;;2.08;;
47373;SDS011;33123;50.118;10.272;2023-06-24T03:24:07;2.40;;;2.20;;
47373;SDS011;33123;50.118;10.272;2023-06-24T03:26:34;2.38;;;2.17;;
47373;SDS011;33123;50.118;10.272;2023-06-24T03:29:01;6.60;;;3.80;;
47373;SDS011;33123;50.118;10.272;2023-06-24T03:31:29;3.22;;;2.92;;
47373;SDS011;33123;50.118;10.272;2023-06-24T03:33:56;3.58;;;2.92;;
47373;SDS011;33123;50.118;10.272;2023-06-24T03:36:23;3.92;;;2.60;;
47373;SDS011;33123;50.118;10.272;2023-06-24T03:38:50;2.97;;;2.08;;
47373;SDS011;33123;50.118;10.272;2023-06-24T03:41:17;2.88;;;2.55;;
47373;SDS011;33123;50.118;10.272;2023-06-24T03:43:43;5.50;;;3.22;;
47373;SDS011;33123;50.118;10.272;2023-06-24T03:46:11;6.80;;;1.83;;
47373;SDS011;33123;50.118;10.272;2023-06-24T03:48:39;2.95;;;2.30;;
47373;SDS011;33123;50.118;10.272;2023-06-24T03:51:05;3.33;;;3.03;;
47373;SDS011;33123;50.118;10.272;2023-06-24T03:53:32;3.10;;;2.55;;
47373;SDS011;33123;50.118;10.272;2023-06-24T03:55:59;2.67;;;2.47;;
47373;SDS011;33123;50.118;10.272;2023-06-24T03:58:26;3.03;;;2.72;;
47373;SDS011;33123;50.118;10.272;2023-06-24T04:00:53;3.17;;;2.88;;
47373;SDS011;33123;50.118;10.272;2023-06-24T04:03:22;2.63;;;2.20;;
47373;SDS011;33123;50.118;10.272;2023-06-24T04:05:52;2.45;;;2.25;;
47373;SDS011;33123;50.118;10.272;2023-06-24T04:08:19;4.30;;;2.90;;
47373;SDS011;33123;50.118;10.272;2023-06-24T04:10:46;6.05;;;2.95;;
47373;SDS011;33123;50.118;10.272;2023-06-24T04:13:12;3.55;;;3.22;;
47373;SDS011;33123;50.118;10.272;2023-06-24T04:15:39;5.05;;;4.35;;
47373;SDS011;33123;50.118;10.272;2023-06-24T04:18:05;3.30;;;3.03;;
47373;SDS011;33123;50.118;10.272;2023-06-24T04:20:32;2.58;;;2.38;;
47373;SDS011;33123;50.118;10.272;2023-06-24T04:23:00;2.53;;;2.33;;
47373;SDS011;33123;50.118;10.272;2023-06-24T04:25:27;3.20;;;2.88;;
47373;SDS011;33123;50.118;10.272;2023-06-24T04:27:53;3.55;;;3.10;;
47373;SDS011;33123;50.118;10.272;2023-06-24T04:30:20;5.53;;;2.78;;
47373;SDS011;33123;50.118;10.272;2023-06-24T04:32:47;3.75;;;3.45;;
47373;SDS011;33123;50.118;10.272;2023-06-24T04:35:13;7.40;;;3.30;;
47373;SDS011;33123;50.118;10.272;2023-06-24T04:37:40;2.85;;;2.00;;
47373;SDS011;33123;50.118;10.272;2023-06-24T04:40:08;3.72;;;3.00;;
47373;SDS011;33123;50.118;10.272;2023-06-24T04:42:35;3.30;;;2.60;;
47373;SDS011;33123;50.118;10.272;2023-06-24T04:45:02;3.30;;;3.00;;
47373;SDS011;33123;50.118;10.272;2023-06-24T04:47:30;2.35;;;2.05;;
47373;SDS011;33123;50.118;10.272;2023-06-24T04:49:57;3.15;;;1.92;;
47373;SDS011;33123;50.118;10.272;2023-06-24T04:52:24;2.58;;;2.22;;
47373;SDS011;33123;50.118;10.272;2023-06-24T04:54:50;2.88;;;2.35;;
47373;SDS011;33123;50.118;10.272;2023-06-24T04:57:28;4.28;;;3.10;;
47373;SDS011;33123;50.118;10.272;2023-06-24T04:59:55;2.47;;;2.28;;
47373;SDS011;33123;50.118;10.272;2023-06-24T05:09:37;3.22;;;2.55;;
47373;SDS011;33123;50.118;10.272;2023-06-24T05:12:47;7.03;;;1.77;;
47373;SDS011;33123;50.118;10.272;2023-06-24T05:15:16;2.25;;;2.05;;
47373;SDS011;33123;50.118;10.272;2023-06-24T05:17:50;7.43;;;2.70;;
47373;SDS011;33123;50.118;10.272;2023-06-24T05:20:30;2.38;;;2.13;;
47373;SDS011;33123;50.118;10.272;2023-06-24T05:23:06;2.50;;;2.30;;
47373;SDS011;33123;50.118;10.272;2023-06-24T05:25:40;3.72;;;2.42;;
47373;SDS011;33123;50.118;10.272;2023-06-24T05:28:13;2.90;;;2.65;;
47373;SDS011;33123;50.118;10.272;2023-06-24T05:30:51;2.63;;;2.22;;
47373;SDS011;33123;50.118;10.272;2023-06-24T05:33:18;2.58;;;2.38;;
47373;SDS011;33123;50.118;10.272;2023-06-24T05:35:44;5.32;;;2.38;;
47373;SDS011;33123;50.118;10.272;2023-06-24T05:38:13;4.13;;;3.55;;
47373;SDS011;33123;50.118;10.272;2023-06-24T05:40:44;4.10;;;2.85;;
47373;SDS011;33123;50.118;10.272;2023-06-24T05:43:16;3.50;;;2.97;;
47373;SDS011;33123;50.118;10.272;2023-06-24T05:46:01;1.98;;;1.60;;
47373;SDS011;33123;50.118;10.272;2023-06-24T05:48:32;3.35;;;2.70;;
47373;SDS011;33123;50.118;10.272;2023-06-24T05:50:59;2.72;;;2.22;;
47373;SDS011;33123;50.118;10.272;2023-06-24T05:53:26;3.78;;;2.95;;
47373;SDS011;33123;50.118;10.272;2023-06-24T05:55:52;2.17;;;1.98;;
47373;SDS011;33123;50.118;10.272;2023-06-24T05:58:21;3.53;;;3.22;;
47373;SDS011;33123;50.118;10.272;2023-06-24T06:00:48;2.40;;;2.20;;
47373;SDS011;33123;50.118;10.272;2023-06-24T06:03:15;3.17;;;2.85;;
47373;SDS011;33123;50.118;10.272;2023-06-24T06:05:42;2.50;;;1.60;;
47373;SDS011;33123;50.118;10.272;2023-06-24T06:08:08;1.83;;;1.73;;
47373;SDS011;33123;50.118;10.272;2023-06-24T06:10:35;2.53;;;2.35;;
47373;SDS011;33123;50.118;10.272;2023-06-24T06:13:02;3.20;;;2.08;;
47373;SDS011;33123;50.118;10.272;2023-06-24T06:15:30;2.38;;;2.03;;
47373;SDS011;33123;50.118;10.272;2023-06-24T06:17:56;3.33;;;2.47;;
47373;SDS011;33123;50.118;10.272;2023-06-24T06:20:23;2.03;;;1.80;;
47373;SDS011;33123;50.118;10.272;2023-06-24T06:22:51;6.38;;;2.13;;
47373;SDS011;33123;50.118;10.272;2023-06-24T06:25:17;2.55;;;2.22;;
47373;SDS011;33123;50.118;10.272;2023-06-24T06:27:44;2.40;;;2.20;;
47373;SDS011;33123;50.118;10.272;2023-06-24T06:30:11;3.35;;;2.22;;
47373;SDS011;33123;50.118;10.272;2023-06-24T06:32:41;1.92;;;1.80;;
47373;SDS011;33123;50.118;10.272;2023-06-24T06:35:08;2.15;;;2.00;;
47373;SDS011;33123;50.118;10.272;2023-06-24T06:37:35;2.75;;;2.35;;
47373;SDS011;33123;50.118;10.272;2023-06-24T06:40:02;2.20;;;2.00;;
47373;SDS011;33123;50.118;10.272;2023-06-24T06:42:29;1.83;;;1.73;;
47373;SDS011;33123;50.118;10.272;2023-06-24T06:44:56;4.18;;;2.67;;
47373;SDS011;33123;50.118;10.272;2023-06-24T06:47:22;2.95;;;2.08;;
47373;SDS011;33123;50.118;10.272;2023-06-24T06:49:50;3.03;;;2.50;;
47373;SDS011;33123;50.118;10.272;2023-06-24T06:52:17;3.38;;;2.05;;
47373;SDS011;33123;50.118;10.272;2023-06-24T06:54:44;2.80;;;2.50;;
47373;SDS011;33123;50.118;10.272;2023-06-24T06:57:10;2.40;;;2.05;;
47373;SDS011;33123;50.118;10.272;2023-06-24T06:59:37;2.38;;;2.15;;
47373;SDS011;33123;50.118;10.272;2023-06-24T07:02:04;2.42;;;2.22;;
47373;SDS011;33123;50.118;10.272;2023-06-24T07:04:32;2.60;;;2.38;;
47373;SDS011;33123;50.118;10.272;2023-06-24T07:07:00;1.88;;;1.40;;
47373;SDS011;33123;50.118;10.272;2023-06-24T07:09:27;2.53;;;2.33;;
47373;SDS011;33123;50.118;10.272;2023-06-24T07:11:54;2.00;;;1.83;;
47373;SDS011;33123;50.118;10.272;2023-06-24T07:14:21;1.35;;;1.25;;
47373;SDS011;33123;50.118;10.272;2023-06-24T07:16:49;2.30;;;2.10;;
47373;SDS011;33123;50.118;10.272;2023-06-24T07:19:16;3.15;;;2.70;;
47373;SDS011;33123;50.118;10.272;2023-06-24T07:21:43;2.17;;;1.98;;
47373;SDS011;33123;50.118;10.272;2023-06-24T07:24:11;5.32;;;1.83;;
47373;SDS011;33123;50.118;10.272;2023-06-24T07:26:40;1.95;;;1.80;;
47373;SDS011;33123;50.118;10.272;2023-06-24T07:29:10;2.88;;;1.77;;
47373;SDS011;33123;50.118;10.272;2023-06-24T07:31:36;3.85;;;2.45;;
47373;SDS011;33123;50.118;10.272;2023-06-24T07:34:03;1.55;;;1.45;;
47373;SDS011;33123;50.118;10.272;2023-06-24T07:36:30;2.20;;;1.70;;
47373;SDS011;33123;50.118;10.272;2023-06-24T07:38:59;1.63;;;1.52;;
47373;SDS011;33123;50.118;10.272;2023-06-24T07:41:30;2.10;;;1.90;;
47373;SDS011;33123;50.118;10.272;2023-06-24T07:44:04;1.58;;;1.48;;
47373;SDS011;33123;50.118;10.272;2023-06-24T07:46:33;1.73;;;1.63;;
47373;SDS011;33123;50.118;10.272;2023-06-24T07:49:00;1.30;;;1.20;;
47373;SDS011;33123;50.118;10.272;2023-06-24T07:51:27;1.90;;;1.75;;
47373;SDS011;33123;50.118;10.272;2023-06-24T07:53:54;2.17;;;1.98;;
47373;SDS011;33123;50.118;10.272;2023-06-24T07:56:43;1.95;;;1.60;;
47373;SDS011;33123;50.118;10.272;2023-06-24T07:59:15;2.78;;;2.13;;
47373;SDS011;33123;50.118;10.272;2023-06-24T08:01:47;2.97;;;1.90;;
47373;SDS011;33123;50.118;10.272;2023-06-24T08:04:17;2.25;;;1.33;;
47373;SDS011;33123;50.118;10.272;2023-06-24T08:06:44;1.92;;;1.83;;
47373;SDS011;33123;50.118;10.272;2023-06-24T08:09:16;2.80;;;2.10;;
47373;SDS011;33123;50.118;10.272;2023-06-24T08:11:59;1.67;;;1.45;;
47373;SDS011;33123;50.118;10.272;2023-06-24T08:14:34;1.48;;;1.38;;
47373;SDS011;33123;50.118;10.272;2023-06-24T08:17:17;1.98;;;1.77;;
47373;SDS011;33123;50.118;10.272;2023-06-24T08:19:51;2.28;;;1.77;;
47373;SDS011;33123;50.118;10.272;2023-06-24T08:22:26;4.80;;;2.17;;
47373;SDS011;33123;50.118;10.272;2023-06-24T08:24:58;1.52;;;1.42;;
47373;SDS011;33123;50.118;10.272;2023-06-24T08:27:31;2.92;;;1.38;;
47373;SDS011;33123;50.118;10.272;2023-06-24T08:30:03;1.52;;;1.42;;
47373;SDS011;33123;50.118;10.272;2023-06-24T08:32:44;1.92;;;1.65;;
47373;SDS011;33123;50.118;10.272;2023-06-24T08:35:15;1.55;;;1.38;;
47373;SDS011;33123;50.118;10.272;2023-06-24T08:37:47;1.35;;;1.15;;
47373;SDS011;33123;50.118;10.272;2023-06-24T08:40:22;2.38;;;1.33;;
47373;SDS011;33123;50.118;10.272;2023-06-24T08:43:08;1.27;;;1.17;;
47373;SDS011;33123;50.118;10.272;2023-06-24T08:45:46;1.77;;;1.67;;
47373;SDS011;33123;50.118;10.272;2023-06-24T08:48:17;1.65;;;1.55;;
47373;SDS011;33123;50.118;10.272;2023-06-24T08:50:58;1.98;;;1.85;;
47373;SDS011;33123;50.118;10.272;2023-06-24T08:53:30;1.45;;;1.33;;
47373;SDS011;33123;50.118;10.272;2023-06-24T08:56:12;2.08;;;1.40;;
47373;SDS011;33123;50.118;10.272;2023-06-24T08:58:47;1.50;;;1.40;;
47373;SDS011;33123;50.118;10.272;2023-06-24T09:01:30;2.00;;;1.52;;
47373;SDS011;33123;50.118;10.272;2023-06-24T09:04:05;3.10;;;1.45;;
47373;SDS011;33123;50.118;10.272;2023-06-24T09:06:44;1.27;;;1.08;;
47373;SDS011;33123;50.118;10.272;2023-06-24T09:09:25;1.30;;;1.20;;
47373;SDS011;33123;50.118;10.272;2023-06-24T09:11:59;3.25;;;1.80;;
47373;SDS011;33123;50.118;10.272;2023-06-24T09:14:32;1.25;;;1.20;;
47373;SDS011;33123;50.118;10.272;2023-06-24T09:17:08;1.80;;;1.55;;
47373;SDS011;33123;50.118;10.272;2023-06-24T09:19:37;1.90;;;1.65;;
47373;SDS011;33123;50.118;10.272;2023-06-24T09:24:45;4.43;;;1.38;;
47373;SDS011;33123;50.118;10.272;2023-06-24T09:27:13;0.93;;;0.93;;
47373;SDS011;33123;50.118;10.272;2023-06-24T09:29:48;1.55;;;1.45;;
47373;SDS011;33123;50.118;10.272;2023-06-24T09:32:21;2.97;;;1.45;;
47373;SDS011;33123;50.118;10.272;2023-06-24T09:34:55;1.33;;;1.23;;
47373;SDS011;33123;50.118;10.272;2023-06-24T09:37:27;1.45;;;1.33;;
47373;SDS011;33123;50.118;10.272;2023-06-24T09:40:07;1.63;;;1.33;;
47373;SDS011;33123;50.118;10.272;2023-06-24T09:42:47;2.05;;;1.52;;
47373;SDS011;33123;50.118;10.272;2023-06-24T09:45:21;1.80;;;1.55;;
47373;SDS011;33123;50.118;10.272;2023-06-24T09:47:53;1.25;;;1.15;;
47373;SDS011;33123;50.118;10.272;2023-06-24T09:50:36;2.13;;;1.98;;
47373;SDS011;33123;50.118;10.272;2023-06-24T09:53:07;2.90;;;2.30;;
47373;SDS011;33123;50.118;10.272;2023-06-24T09:55:43;1.20;;;1.13;;
47373;SDS011;33123;50.118;10.272;2023-06-24T09:58:23;2.33;;;1.17;;
47373;SDS011;33123;50.118;10.272;2023-06-24T10:00:55;1.98;;;1.52;;
47373;SDS011;33123;50.118;10.272;2023-06-24T10:03:25;1.42;;;1.33;;
47373;SDS011;33123;50.118;10.272;2023-06-24T10:05:59;2.13;;;1.95;;
47373;SDS011;33123;50.118;10.272;2023-06-24T10:08:41;1.83;;;1.63;;
47373;SDS011;33123;50.118;10.272;2023-06-24T10:11:12;2.65;;;2.20;;
47373;SDS011;33123;50.118;10.272;2023-06-24T10:13:46;1.88;;;1.40;;
47373;SDS011;33123;50.118;10.272;2023-06-24T10:16:17;2.15;;;1.88;;
47373;SDS011;33123;50.118;10.272;2023-06-24T10:18:45;1.92;;;1.20;;
47373;SDS011;33123;50.118;10.272;2023-06-24T10:21:12;1.65;;;1.55;;
47373;SDS011;33123;50.118;10.272;2023-06-24T10:23:42;2.17;;;1.13;;
47373;SDS011;33123;50.118;10.272;2023-06-24T10:26:21;1.52;;;1.42;;
47373;SDS011;33123;50.118;10.272;2023-06-24T10:29:08;1.70;;;1.58;;
47373;SDS011;33123;50.118;10.272;2023-06-24T10:31:51;1.55;;;1.33;;
47373;SDS011;33123;50.118;10.272;2023-06-24T10:34:24;1.65;;;1.55;;
47373;SDS011;33123;50.118;10.272;2023-06-24T10:36:53;1.20;;;1.10;;
47373;SDS011;33123;50.118;10.272;2023-06-24T10:39:37;4.57;;;1.75;;
47373;SDS011;33123;50.118;10.272;2023-06-24T10:45:14;1.42;;;1.33;;
47373;SDS011;33123;50.118;10.272;2023-06-24T10:47:45;0.73;;;0.73;;
47373;SDS011;33123;50.118;10.272;2023-06-24T10:50:14;1.73;;;1.52;;
47373;SDS011;33123;50.118;10.272;2023-06-24T10:52:41;1.63;;;1.52;;
47373;SDS011;33123;50.118;10.272;2023-06-24T10:55:09;1.35;;;1.25;;
47373;SDS011;33123;50.118;10.272;2023-06-24T10:57:36;1.52;;;1.30;;
47373;SDS011;33123;50.118;10.272;2023-06-24T11:00:15;1.27;;;1.17;;
47373;SDS011;33123;50.118;10.272;2023-06-24T11:02:42;0.80;;;0.80;;
47373;SDS011;33123;50.118;10.272;2023-06-24T11:05:30;1.55;;;1.45;;
47373;SDS011;33123;50.118;10.272;2023-06-24T11:07:59;1.63;;;1.40;;
47373;SDS011;33123;50.118;10.272;2023-06-24T11:10:26;0.70;;;0.70;;
47373;SDS011;33123;50.118;10.272;2023-06-24T11:12:53;1.17;;;1.08;;
47373;SDS011;33123;50.118;10.272;2023-06-24T11:15:20;1.58;;;1.10;;
47373;SDS011;33123;50.118;10.272;2023-06-24T11:17:50;1.85;;;1.38;;
47373;SDS011;33123;50.118;10.272;2023-06-24T11:20:17;1.60;;;1.50;;
47373;SDS011;33123;50.118;10.272;2023-06-24T11:22:44;1.25;;;1.15;;
47373;SDS011;33123;50.118;10.272;2023-06-24T11:25:14;1.70;;;1.27;;
47373;SDS011;33123;50.118;10.272;2023-06-24T11:27:41;1.67;;;1.58;;
47373;SDS011;33123;50.118;10.272;2023-06-24T11:30:08;2.05;;;1.52;;
47373;SDS011;33123;50.118;10.272;2023-06-24T11:32:37;1.35;;;1.25;;
47373;SDS011;33123;50.118;10.272;2023-06-24T11:35:07;1.50;;;1.40;;
47373;SDS011;33123;50.118;10.272;2023-06-24T11:37:35;4.63;;;1.95;;
47373;SDS011;33123;50.118;10.272;2023-06-24T11:40:02;1.88;;;1.45;;
47373;SDS011;33123;50.118;10.272;2023-06-24T11:42:30;1.10;;;1.00;;
47373;SDS011;33123;50.118;10.272;2023-06-24T11:45:01;1.60;;;1.20;;
47373;SDS011;33123;50.118;10.272;2023-06-24T11:47:30;4.43;;;1.52;;
47373;SDS011;33123;50.118;10.272;2023-06-24T11:49:58;1.15;;;1.10;;
47373;SDS011;33123;50.118;10.272;2023-06-24T11:52:33;1.35;;;1.25;;
47373;SDS011;33123;50.118;10.272;2023-06-24T11:55:10;1.70;;;1.40;;
47373;SDS011;33123;50.118;10.272;2023-06-24T11:57:49;1.80;;;1.48;;
47373;SDS011;33123;50.118;10.272;2023-06-24T12:00:16;1.38;;;1.17;;
47373;SDS011;33123;50.118;10.272;2023-06-24T12:02:45;1.52;;;1.42;;
47373;SDS011;33123;50.118;10.272;2023-06-24T12:05:11;2.88;;;2.13;;
47373;SDS011;33123;50.118;10.272;2023-06-24T12:07:39;0.90;;;0.90;;
47373;SDS011;33123;50.118;10.272;2023-06-24T12:10:07;1.30;;;1.20;;
47373;SDS011;33123;50.118;10.272;2023-06-24T12:12:34;1.40;;;1.30;;
47373;SDS011;33123;50.118;10.272;2023-06-24T12:15:01;1.50;;;1.40;;
47373;SDS011;33123;50.118;10.272;2023-06-24T12:17:28;1.45;;;1.10;;
47373;SDS011;33123;50.118;10.272;2023-06-24T12:19:54;2.05;;;1.83;;
47373;SDS011;33123;50.118;10.272;2023-06-24T12:22:21;1.30;;;1.20;;
47373;SDS011;33123;50.118;10.272;2023-06-24T12:24:49;1.30;;;1.20;;
47373;SDS011;33123;50.118;10.272;2023-06-24T12:27:15;0.98;;;0.98;;
47373;SDS011;33123;50.118;10.272;2023-06-24T12:29:42;1.60;;;1.50;;
47373;SDS011;33123;50.118;10.272;2023-06-24T12:32:08;1.15;;;1.08;;
47373;SDS011;33123;50.118;10.272;2023-06-24T12:34:35;1.42;;;1.23;;
47373;SDS011;33123;50.118;10.272;2023-06-24T12:37:02;1.67;;;1.58;;
47373;SDS011;33123;50.118;10.272;2023-06-24T12:39:28;1.73;;;1.63;;
47373;SDS011;33123;50.118;10.272;2023-06-24T12:41:56;2.17;;;1.92;;
47373;SDS011;33123;50.118;10.272;2023-06-24T12:44:23;4.75;;;1.58;;
47373;SDS011;33123;50.118;10.272;2023-06-24T12:46:50;1.02;;;1.02;;
47373;SDS011;33123;50.118;10.272;2023-06-24T12:49:16;2.05;;;1.67;;
47373;SDS011;33123;50.118;10.272;2023-06-24T12:51:43;2.25;;;1.60;;
47373;SDS011;33123;50.118;10.272;2023-06-24T12:54:10;2.65;;;1.38;;
47373;SDS011;33123;50.118;10.272;2023-06-24T12:56:37;2.03;;;1.83;;
47373;SDS011;33123;50.118;10.272;2023-06-24T12:59:05;2.40;;;2.22;;
47373;SDS011;33123;50.118;10.272;2023-06-24T13:01:32;1.33;;;1.23;;
47373;SDS011;33123;50.118;10.272;2023-06-24T13:03:58;1.42;;;1.33;;
47373;SDS011;33123;50.118;10.272;2023-06-24T13:06:25;3.13;;;2.35;;
47373;SDS011;33123;50.118;10.272;2023-06-24T13:08:51;1.60;;;1.50;;
47373;SDS011;33123;50.118;10.272;2023-06-24T13:11:18;1.30;;;1.20;;
47373;SDS011;33123;50.118;10.272;2023-06-24T13:13:45;1.33;;;1.27;;
47373;SDS011;33123;50.118;10.272;2023-06-24T13:16:13;1.92;;;1.52;;
47373;SDS011;33123;50.118;10.272;2023-06-24T13:18:39;3.25;;;1.83;;
47373;SDS011;33123;50.118;10.272;2023-06-24T13:21:06;1.70;;;1.60;;
47373;SDS011;33123;50.118;10.272;2023-06-24T13:23:32;1.48;;;1.38;;
47373;SDS011;33123;50.118;10.272;2023-06-24T13:26:02;2.00;;;1.52;;
47373;SDS011;33123;50.118;10.272;2023-06-24T13:28:29;2.15;;;1.83;;
47373;SDS011;33123;50.118;10.272;2023-06-24T13:30:56;1.40;;;1.30;;
47373;SDS011;33123;50.118;10.272;2023-06-24T13:33:24;2.78;;;1.73;;
47373;SDS011;33123;50.118;10.272;2023-06-24T13:35:51;1.65;;;1.55;;
47373;SDS011;33123;50.118;10.272;2023-06-24T13:38:18;2.55;;;1.60;;
47373;SDS011;33123;50.118;10.272;2023-06-24T13:40:45;1.30;;;1.20;;
47373;SDS011;33123;50.118;10.272;2023-06-24T13:43:12;2.45;;;1.50;;
47373;SDS011;33123;50.118;10.272;2023-06-24T13:45:38;1.65;;;1.55;;
47373;SDS011;33123;50.118;10.272;2023-06-24T13:48:05;1.33;;;1.23;;
47373;SDS011;33123;50.118;10.272;2023-06-24T13:50:33;1.35;;;1.25;;
47373;SDS011;33123;50.118;10.272;2023-06-24T13:53:00;1.23;;;1.13;;
47373;SDS011;33123;50.118;10.272;2023-06-24T13:55:26;1.45;;;1.35;;
47373;SDS011;33123;50.118;10.272;2023-06-24T13:57:53;2.72;;;1.33;;
47373;SDS011;33123;50.118;10.272;2023-06-24T14:00:20;1.73;;;1.55;;
47373;SDS011;33123;50.118;10.272;2023-06-24T14:02:46;1.20;;;1.10;;
47373;SDS011;33123;50.118;10.272;2023-06-24T14:05:13;1.80;;;1.30;;
47373;SDS011;33123;50.118;10.272;2023-06-24T14:07:41;1.50;;;1.35;;
47373;SDS011;33123;50.118;10.272;2023-06-24T14:10:08;2.55;;;1.75;;
47373;SDS011;33123;50.118;10.272;2023-06-24T14:12:35;1.83;;;1.60;;
47373;SDS011;33123;50.118;10.272;2023-06-24T14:15:02;1.63;;;1.52;;
47373;SDS011;33123;50.118;10.272;2023-06-24T14:17:29;1.52;;;1.42;;
47373;SDS011;33123;50.118;10.272;2023-06-24T14:19:56;1.40;;;1.30;;
47373;SDS011;33123;50.118;10.272;2023-06-24T14:22:23;1.85;;;1.75;;
47373;SDS011;33123;50.118;10.272;2023-06-24T14:24:52;3.47;;;1.95;;
47373;SDS011;33123;50.118;10.272;2023-06-24T14:27:19;1.95;;;1.75;;
47373;SDS011;33123;50.118;10.272;2023-06-24T14:29:46;1.40;;;1.27;;
47373;SDS011;33123;50.118;10.272;2023-06-24T14:32:12;1.55;;;1.30;;
47373;SDS011;33123;50.118;10.272;2023-06-24T14:34:39;7.00;;;1.63;;
47373;SDS011;33123;50.118;10.272;2023-06-24T14:37:07;1.65;;;1.55;;
47373;SDS011;33123;50.118;10.272;2023-06-24T14:39:38;1.75;;;1.65;;
47373;SDS011;33123;50.118;10.272;2023-06-24T14:42:21;1.63;;;1.52;;
47373;SDS011;33123;50.118;10.272;2023-06-24T14:44:56;10.70;;;2.00;;
47373;SDS011;33123;50.118;10.272;2023-06-24T14:47:28;2.88;;;2.08;;
47373;SDS011;33123;50.118;10.272;2023-06-24T14:49:58;1.42;;;1.33;;
47373;SDS011;33123;50.118;10.272;2023-06-24T14:52:39;2.08;;;1.88;;
47373;SDS011;33123;50.118;10.272;2023-06-24T14:55:11;2.33;;;1.85;;
47373;SDS011;33123;50.118;10.272;2023-06-24T14:57:52;0.98;;;0.95;;
47373;SDS011;33123;50.118;10.272;2023-06-24T15:00:33;1.40;;;1.30;;
47373;SDS011;33123;50.118;10.272;2023-06-24T15:03:09;1.60;;;1.50;;